sensor_id;sensor_type;location;lat;lon;timestamp;temperature;humidity
19908;DHT22;10116;53.112;7.356;2022-11-04T00:00:46;25.60;99.90
19908;DHT22;10116;53.112;7.356;2022-11-04T00:03:11;25.60;99.90
19908;DHT22;10116;53.112;7.356;2022-11-04T00:05:37;25.60;99.90
19908;DHT22;10116;53.112;7.356;2022-11-04T00:08:03;25.60;99.90
19908;DHT22;10116;53.112;7.356;2022-11-04T00:10:47;25.60;99.90
19908;DHT22;10116;53.112;7.356;2022-11-04T00:13:31;25.60;99.90
19908;DHT22;10116;53.112;7.356;2022-11-04T00:16:00;25.60;99.90
19908;DHT22;10116;53.112;7.356;2022-11-04T00:18:44;25.60;99.90
19908;DHT22;10116;53.112;7.356;2022-11-04T00:21:09;25.60;99.90
19908;DHT22;10116;53.112;7.356;2022-11-04T00:23:53;25.60;99.90
19908;DHT22;10116;53.112;7.356;2022-11-04T00:26:37;25.60;99.90
19908;DHT22;10116;53.112;7.356;2022-11-04T00:29:22;25.60;99.90
19908;DHT22;10116;53.112;7.356;2022-11-04T00:31:47;25.60;99.90
19908;DHT22;10116;53.112;7.356;2022-11-04T00:34:31;25.60;99.90
19908;DHT22;10116;53.112;7.356;2022-11-04T00:36:58;25.60;99.90
19908;DHT22;10116;53.112;7.356;2022-11-04T00:39:24;25.60;99.90
19908;DHT22;10116;53.112;7.356;2022-11-04T00:41:49;25.60;99.90
19908;DHT22;10116;53.112;7.356;2022-11-04T00:44:15;25.60;99.90
19908;DHT22;10116;53.112;7.356;2022-11-04T00:46:41;25.50;99.90
19908;DHT22;10116;53.112;7.356;2022-11-04T00:49:06;25.60;99.90
19908;DHT22;10116;53.112;7.356;2022-11-04T00:51:32;25.60;99.90
19908;DHT22;10116;53.112;7.356;2022-11-04T00:53:57;25.60;99.90
19908;DHT22;10116;53.112;7.356;2022-11-04T00:56:23;25.50;99.90
19908;DHT22;10116;53.112;7.356;2022-11-04T00:58:49;25.60;99.90
19908;DHT22;10116;53.112;7.356;2022-11-04T01:01:16;25.60;99.90
19908;DHT22;10116;53.112;7.356;2022-11-04T01:03:42;25.50;99.90
19908;DHT22;10116;53.112;7.356;2022-11-04T01:06:08;25.50;99.90
19908;DHT22;10116;53.112;7.356;2022-11-04T01:08:33;25.60;99.90
19908;DHT22;10116;53.112;7.356;2022-11-04T01:11:03;25.60;99.90
19908;DHT22;10116;53.112;7.356;2022-11-04T01:13:29;25.60;99.90
19908;DHT22;10116;53.112;7.356;2022-11-04T01:15:59;25.60;99.90
19908;DHT22;10116;53.112;7.356;2022-11-04T01:18:24;25.60;99.90
19908;DHT22;10116;53.112;7.356;2022-11-04T01:20:50;25.50;99.90
19908;DHT22;10116;53.112;7.356;2022-11-04T01:23:16;25.60;99.90
19908;DHT22;10116;53.112;7.356;2022-11-04T01:25:41;25.50;99.90
19908;DHT22;10116;53.112;7.356;2022-11-04T01:28:07;25.50;99.90
19908;DHT22;10116;53.112;7.356;2022-11-04T01:30:32;25.50;99.90
19908;DHT22;10116;53.112;7.356;2022-11-04T01:32:58;25.50;99.90
19908;DHT22;10116;53.112;7.356;2022-11-04T01:35:24;25.60;99.90
19908;DHT22;10116;53.112;7.356;2022-11-04T01:37:49;25.60;99.90
19908;DHT22;10116;53.112;7.356;2022-11-04T01:40:15;25.50;99.90
19908;DHT22;10116;53.112;7.356;2022-11-04T01:42:40;25.50;99.90
19908;DHT22;10116;53.112;7.356;2022-11-04T01:45:13;25.50;99.90
19908;DHT22;10116;53.112;7.356;2022-11-04T01:47:42;25.50;99.90
19908;DHT22;10116;53.112;7.356;2022-11-04T01:50:17;25.50;99.90
19908;DHT22;10116;53.112;7.356;2022-11-04T01:52:52;25.50;99.90
19908;DHT22;10116;53.112;7.356;2022-11-04T01:55:23;25.50;99.90
19908;DHT22;10116;53.112;7.356;2022-11-04T01:57:52;25.50;99.90
19908;DHT22;10116;53.112;7.356;2022-11-04T02:00:19;25.50;99.90
19908;DHT22;10116;53.112;7.356;2022-11-04T02:05:26;25.50;99.90
19908;DHT22;10116;53.112;7.356;2022-11-04T02:07:56;25.50;99.90
19908;DHT22;10116;53.112;7.356;2022-11-04T02:10:25;25.50;99.90
19908;DHT22;10116;53.112;7.356;2022-11-04T02:12:53;25.50;99.90
19908;DHT22;10116;53.112;7.356;2022-11-04T02:15:25;25.50;99.90
19908;DHT22;10116;53.112;7.356;2022-11-04T02:20:36;25.50;99.90
19908;DHT22;10116;53.112;7.356;2022-11-04T02:23:31;25.50;99.90
19908;DHT22;10116;53.112;7.356;2022-11-04T02:45:20;25.50;99.90
19908;DHT22;10116;53.112;7.356;2022-11-04T02:48:00;25.50;99.90
19908;DHT22;10116;53.112;7.356;2022-11-04T02:50:55;25.50;99.90
19908;DHT22;10116;53.112;7.356;2022-11-04T02:54:10;25.50;99.90
19908;DHT22;10116;53.112;7.356;2022-11-04T02:56:41;25.50;99.90
19908;DHT22;10116;53.112;7.356;2022-11-04T02:59:13;25.40;99.90
19908;DHT22;10116;53.112;7.356;2022-11-04T03:01:41;25.50;99.90
19908;DHT22;10116;53.112;7.356;2022-11-04T03:04:14;25.50;99.90
19908;DHT22;10116;53.112;7.356;2022-11-04T03:06:43;25.50;99.90
19908;DHT22;10116;53.112;7.356;2022-11-04T03:09:11;25.40;99.90
19908;DHT22;10116;53.112;7.356;2022-11-04T03:11:40;25.40;99.90
19908;DHT22;10116;53.112;7.356;2022-11-04T03:14:13;25.40;99.90
19908;DHT22;10116;53.112;7.356;2022-11-04T03:16:50;25.50;99.90
19908;DHT22;10116;53.112;7.356;2022-11-04T03:19:46;25.50;99.90
19908;DHT22;10116;53.112;7.356;2022-11-04T03:22:19;25.50;99.90
19908;DHT22;10116;53.112;7.356;2022-11-04T03:24:46;25.50;99.90
19908;DHT22;10116;53.112;7.356;2022-11-04T03:30:10;25.50;99.90
19908;DHT22;10116;53.112;7.356;2022-11-04T03:32:54;25.40;99.90
19908;DHT22;10116;53.112;7.356;2022-11-04T03:35:23;25.40;99.90
19908;DHT22;10116;53.112;7.356;2022-11-04T03:37:49;25.40;99.90
19908;DHT22;10116;53.112;7.356;2022-11-04T03:40:16;25.40;99.90
19908;DHT22;10116;53.112;7.356;2022-11-04T03:42:59;25.40;99.90
19908;DHT22;10116;53.112;7.356;2022-11-04T03:45:25;25.40;99.90
19908;DHT22;10116;53.112;7.356;2022-11-04T03:47:51;25.40;99.90
19908;DHT22;10116;53.112;7.356;2022-11-04T03:50:29;25.40;99.90
19908;DHT22;10116;53.112;7.356;2022-11-04T03:52:56;25.40;99.90
19908;DHT22;10116;53.112;7.356;2022-11-04T03:58:30;25.40;99.90
19908;DHT22;10116;53.112;7.356;2022-11-04T04:01:13;25.40;99.90
19908;DHT22;10116;53.112;7.356;2022-11-04T04:03:48;25.40;99.90
19908;DHT22;10116;53.112;7.356;2022-11-04T04:06:19;25.40;99.90
19908;DHT22;10116;53.112;7.356;2022-11-04T04:09:08;25.40;99.90
19908;DHT22;10116;53.112;7.356;2022-11-04T04:11:43;25.40;99.90
19908;DHT22;10116;53.112;7.356;2022-11-04T04:17:04;25.40;99.90
19908;DHT22;10116;53.112;7.356;2022-11-04T04:19:31;25.40;99.90
19908;DHT22;10116;53.112;7.356;2022-11-04T04:22:05;25.40;99.90
19908;DHT22;10116;53.112;7.356;2022-11-04T04:24:35;25.40;99.90
19908;DHT22;10116;53.112;7.356;2022-11-04T04:27:21;25.40;99.90
19908;DHT22;10116;53.112;7.356;2022-11-04T04:30:03;25.40;99.90
19908;DHT22;10116;53.112;7.356;2022-11-04T04:32:36;25.60;99.90
19908;DHT22;10116;53.112;7.356;2022-11-04T04:35:05;25.60;99.90
19908;DHT22;10116;53.112;7.356;2022-11-04T04:37:51;25.70;99.90
19908;DHT22;10116;53.112;7.356;2022-11-04T04:40:19;25.80;99.90
19908;DHT22;10116;53.112;7.356;2022-11-04T04:43:14;25.80;99.90
19908;DHT22;10116;53.112;7.356;2022-11-04T04:45:58;25.90;99.90
19908;DHT22;10116;53.112;7.356;2022-11-04T04:48:24;25.90;99.90
19908;DHT22;10116;53.112;7.356;2022-11-04T04:50:51;25.90;99.90
19908;DHT22;10116;53.112;7.356;2022-11-04T04:53:21;25.90;99.90
19908;DHT22;10116;53.112;7.356;2022-11-04T04:55:47;25.90;99.90
19908;DHT22;10116;53.112;7.356;2022-11-04T04:58:12;25.90;99.90
19908;DHT22;10116;53.112;7.356;2022-11-04T05:00:38;25.90;99.90
19908;DHT22;10116;53.112;7.356;2022-11-04T05:03:04;25.90;99.90
19908;DHT22;10116;53.112;7.356;2022-11-04T05:05:29;25.90;99.90
19908;DHT22;10116;53.112;7.356;2022-11-04T05:08:02;25.90;99.90
19908;DHT22;10116;53.112;7.356;2022-11-04T05:10:28;25.90;99.90
19908;DHT22;10116;53.112;7.356;2022-11-04T05:12:53;25.90;99.90
19908;DHT22;10116;53.112;7.356;2022-11-04T05:15:37;25.90;99.90
19908;DHT22;10116;53.112;7.356;2022-11-04T05:18:03;25.90;99.90
19908;DHT22;10116;53.112;7.356;2022-11-04T05:20:29;25.80;99.90
19908;DHT22;10116;53.112;7.356;2022-11-04T05:22:58;25.80;99.90
19908;DHT22;10116;53.112;7.356;2022-11-04T05:25:24;25.80;99.90
19908;DHT22;10116;53.112;7.356;2022-11-04T05:27:49;25.80;99.90
19908;DHT22;10116;53.112;7.356;2022-11-04T05:30:15;25.80;99.90
19908;DHT22;10116;53.112;7.356;2022-11-04T05:32:41;25.90;99.90
19908;DHT22;10116;53.112;7.356;2022-11-04T05:35:06;25.80;99.90
19908;DHT22;10116;53.112;7.356;2022-11-04T05:37:33;25.90;99.90
19908;DHT22;10116;53.112;7.356;2022-11-04T05:39:58;25.80;99.90
19908;DHT22;10116;53.112;7.356;2022-11-04T05:42:24;25.80;99.90
19908;DHT22;10116;53.112;7.356;2022-11-04T05:44:49;25.80;99.90
19908;DHT22;10116;53.112;7.356;2022-11-04T05:47:15;25.80;99.90
19908;DHT22;10116;53.112;7.356;2022-11-04T05:49:40;25.80;99.90
19908;DHT22;10116;53.112;7.356;2022-11-04T05:52:06;25.80;99.90
19908;DHT22;10116;53.112;7.356;2022-11-04T05:54:31;25.90;99.90
19908;DHT22;10116;53.112;7.356;2022-11-04T05:56:57;25.90;99.90
19908;DHT22;10116;53.112;7.356;2022-11-04T05:59:22;26.00;99.90
19908;DHT22;10116;53.112;7.356;2022-11-04T06:01:48;26.10;99.90
19908;DHT22;10116;53.112;7.356;2022-11-04T06:04:16;26.10;99.90
19908;DHT22;10116;53.112;7.356;2022-11-04T06:06:42;26.10;99.90
19908;DHT22;10116;53.112;7.356;2022-11-04T06:09:08;26.10;99.90
19908;DHT22;10116;53.112;7.356;2022-11-04T06:11:35;26.10;99.90
19908;DHT22;10116;53.112;7.356;2022-11-04T06:14:01;26.10;99.90
19908;DHT22;10116;53.112;7.356;2022-11-04T06:16:27;26.10;99.90
19908;DHT22;10116;53.112;7.356;2022-11-04T06:18:53;26.10;99.90
19908;DHT22;10116;53.112;7.356;2022-11-04T06:21:25;26.10;99.90
19908;DHT22;10116;53.112;7.356;2022-11-04T06:23:52;26.00;99.90
19908;DHT22;10116;53.112;7.356;2022-11-04T06:26:18;26.00;99.90
19908;DHT22;10116;53.112;7.356;2022-11-04T06:28:44;26.10;99.90
19908;DHT22;10116;53.112;7.356;2022-11-04T06:31:11;26.00;99.90
19908;DHT22;10116;53.112;7.356;2022-11-04T06:33:37;26.00;99.90
19908;DHT22;10116;53.112;7.356;2022-11-04T06:36:04;26.00;99.90
19908;DHT22;10116;53.112;7.356;2022-11-04T06:38:32;26.00;99.90
19908;DHT22;10116;53.112;7.356;2022-11-04T06:40:58;26.00;99.90
19908;DHT22;10116;53.112;7.356;2022-11-04T06:43:25;26.00;99.90
19908;DHT22;10116;53.112;7.356;2022-11-04T06:45:55;26.00;99.90
19908;DHT22;10116;53.112;7.356;2022-11-04T06:48:20;26.00;99.90
19908;DHT22;10116;53.112;7.356;2022-11-04T06:50:46;26.00;99.90
19908;DHT22;10116;53.112;7.356;2022-11-04T06:53:12;25.90;99.90
19908;DHT22;10116;53.112;7.356;2022-11-04T06:55:37;25.90;99.90
19908;DHT22;10116;53.112;7.356;2022-11-04T06:58:03;25.90;99.90
19908;DHT22;10116;53.112;7.356;2022-11-04T07:00:28;25.90;99.90
19908;DHT22;10116;53.112;7.356;2022-11-04T07:02:54;25.90;99.90
19908;DHT22;10116;53.112;7.356;2022-11-04T07:05:20;25.90;99.90
19908;DHT22;10116;53.112;7.356;2022-11-04T07:07:45;25.80;99.90
19908;DHT22;10116;53.112;7.356;2022-11-04T07:10:11;25.80;99.90
19908;DHT22;10116;53.112;7.356;2022-11-04T07:12:37;25.80;99.90
19908;DHT22;10116;53.112;7.356;2022-11-04T07:15:03;25.90;99.90
19908;DHT22;10116;53.112;7.356;2022-11-04T07:17:28;25.90;99.90
19908;DHT22;10116;53.112;7.356;2022-11-04T07:19:54;26.00;99.90
19908;DHT22;10116;53.112;7.356;2022-11-04T07:22:19;26.10;99.90
19908;DHT22;10116;53.112;7.356;2022-11-04T07:24:45;26.10;99.90
19908;DHT22;10116;53.112;7.356;2022-11-04T07:27:11;26.20;99.90
19908;DHT22;10116;53.112;7.356;2022-11-04T07:29:36;26.20;99.90
19908;DHT22;10116;53.112;7.356;2022-11-04T07:32:02;26.20;99.90
19908;DHT22;10116;53.112;7.356;2022-11-04T07:34:28;26.20;99.90
19908;DHT22;10116;53.112;7.356;2022-11-04T07:36:53;26.20;99.90
19908;DHT22;10116;53.112;7.356;2022-11-04T07:39:19;26.20;99.90
19908;DHT22;10116;53.112;7.356;2022-11-04T07:41:45;26.20;99.90
19908;DHT22;10116;53.112;7.356;2022-11-04T07:44:11;26.20;99.90
19908;DHT22;10116;53.112;7.356;2022-11-04T07:46:37;26.10;99.90
19908;DHT22;10116;53.112;7.356;2022-11-04T07:49:02;26.10;99.90
19908;DHT22;10116;53.112;7.356;2022-11-04T07:51:29;26.10;99.90
19908;DHT22;10116;53.112;7.356;2022-11-04T07:53:57;26.10;99.90
19908;DHT22;10116;53.112;7.356;2022-11-04T07:56:23;26.10;99.90
19908;DHT22;10116;53.112;7.356;2022-11-04T07:58:49;26.10;99.90
19908;DHT22;10116;53.112;7.356;2022-11-04T08:01:18;26.10;99.90
19908;DHT22;10116;53.112;7.356;2022-11-04T08:03:44;26.00;99.90
19908;DHT22;10116;53.112;7.356;2022-11-04T08:06:12;26.10;99.90
19908;DHT22;10116;53.112;7.356;2022-11-04T08:08:38;26.10;99.90
19908;DHT22;10116;53.112;7.356;2022-11-04T08:11:06;26.00;99.90
19908;DHT22;10116;53.112;7.356;2022-11-04T08:13:34;26.00;99.90
19908;DHT22;10116;53.112;7.356;2022-11-04T08:16:01;26.10;99.90
19908;DHT22;10116;53.112;7.356;2022-11-04T08:18:27;26.00;99.90
19908;DHT22;10116;53.112;7.356;2022-11-04T08:20:53;26.00;99.90
19908;DHT22;10116;53.112;7.356;2022-11-04T08:23:19;26.00;99.90
19908;DHT22;10116;53.112;7.356;2022-11-04T08:25:45;26.00;99.90
19908;DHT22;10116;53.112;7.356;2022-11-04T08:28:11;26.00;99.90
19908;DHT22;10116;53.112;7.356;2022-11-04T08:30:51;26.00;99.90
19908;DHT22;10116;53.112;7.356;2022-11-04T08:33:17;26.00;99.90
19908;DHT22;10116;53.112;7.356;2022-11-04T08:35:42;26.00;99.90
19908;DHT22;10116;53.112;7.356;2022-11-04T08:38:08;25.90;99.90
19908;DHT22;10116;53.112;7.356;2022-11-04T08:40:35;26.00;99.90
19908;DHT22;10116;53.112;7.356;2022-11-04T08:43:01;26.00;99.90
19908;DHT22;10116;53.112;7.356;2022-11-04T08:45:26;26.10;99.90
19908;DHT22;10116;53.112;7.356;2022-11-04T08:47:52;26.20;99.90
19908;DHT22;10116;53.112;7.356;2022-11-04T08:50:18;26.20;99.90
19908;DHT22;10116;53.112;7.356;2022-11-04T08:52:44;26.20;99.90
19908;DHT22;10116;53.112;7.356;2022-11-04T08:55:09;26.30;99.90
19908;DHT22;10116;53.112;7.356;2022-11-04T08:57:35;26.30;99.90
19908;DHT22;10116;53.112;7.356;2022-11-04T09:00:02;26.30;99.90
19908;DHT22;10116;53.112;7.356;2022-11-04T09:02:28;26.30;99.90
19908;DHT22;10116;53.112;7.356;2022-11-04T09:04:54;26.30;99.90
19908;DHT22;10116;53.112;7.356;2022-11-04T09:07:19;26.30;99.90
19908;DHT22;10116;53.112;7.356;2022-11-04T09:09:45;26.20;99.90
19908;DHT22;10116;53.112;7.356;2022-11-04T09:12:11;26.30;99.90
19908;DHT22;10116;53.112;7.356;2022-11-04T09:14:36;26.20;99.90
19908;DHT22;10116;53.112;7.356;2022-11-04T09:17:02;26.20;99.90
19908;DHT22;10116;53.112;7.356;2022-11-04T09:19:28;26.20;99.90
19908;DHT22;10116;53.112;7.356;2022-11-04T09:21:53;26.20;99.90
19908;DHT22;10116;53.112;7.356;2022-11-04T09:24:19;26.20;99.90
19908;DHT22;10116;53.112;7.356;2022-11-04T09:26:44;26.10;99.90
19908;DHT22;10116;53.112;7.356;2022-11-04T09:29:10;26.00;99.90
19908;DHT22;10116;53.112;7.356;2022-11-04T09:31:36;26.00;99.90
19908;DHT22;10116;53.112;7.356;2022-11-04T09:34:02;25.90;99.90
19908;DHT22;10116;53.112;7.356;2022-11-04T09:36:28;25.90;99.90
19908;DHT22;10116;53.112;7.356;2022-11-04T09:38:54;25.90;99.90
19908;DHT22;10116;53.112;7.356;2022-11-04T09:44:07;25.90;99.90
19908;DHT22;10116;53.112;7.356;2022-11-04T09:46:38;25.80;99.90
19908;DHT22;10116;53.112;7.356;2022-11-04T09:49:08;25.90;99.90
19908;DHT22;10116;53.112;7.356;2022-11-04T09:51:36;25.90;99.90
19908;DHT22;10116;53.112;7.356;2022-11-04T09:54:09;25.80;99.90
19908;DHT22;10116;53.112;7.356;2022-11-04T09:56:42;25.80;99.90
19908;DHT22;10116;53.112;7.356;2022-11-04T09:59:10;25.80;99.90
19908;DHT22;10116;53.112;7.356;2022-11-04T10:31:57;25.60;99.90
19908;DHT22;10116;53.112;7.356;2022-11-04T10:34:33;25.60;99.90
19908;DHT22;10116;53.112;7.356;2022-11-04T10:37:00;25.60;99.90
19908;DHT22;10116;53.112;7.356;2022-11-04T10:39:31;25.60;99.90
19908;DHT22;10116;53.112;7.356;2022-11-04T10:41:59;25.60;99.90
19908;DHT22;10116;53.112;7.356;2022-11-04T10:44:31;25.80;99.90
19908;DHT22;10116;53.112;7.356;2022-11-04T10:50:29;25.90;99.90
19908;DHT22;10116;53.112;7.356;2022-11-04T10:53:01;25.90;99.90
19908;DHT22;10116;53.112;7.356;2022-11-04T10:58:28;26.10;99.90
19908;DHT22;10116;53.112;7.356;2022-11-04T11:00:54;26.10;99.90
19908;DHT22;10116;53.112;7.356;2022-11-04T11:03:27;26.10;99.90
19908;DHT22;10116;53.112;7.356;2022-11-04T11:08:40;26.20;99.90
19908;DHT22;10116;53.112;7.356;2022-11-04T11:11:07;26.30;99.90
19908;DHT22;10116;53.112;7.356;2022-11-04T11:13:36;26.40;99.90
19908;DHT22;10116;53.112;7.356;2022-11-04T11:16:25;26.40;99.90
19908;DHT22;10116;53.112;7.356;2022-11-04T11:19:27;26.40;99.90
19908;DHT22;10116;53.112;7.356;2022-11-04T11:21:56;26.50;99.90
19908;DHT22;10116;53.112;7.356;2022-11-04T11:24:27;26.50;99.90
19908;DHT22;10116;53.112;7.356;2022-11-04T11:27:00;26.50;99.90
19908;DHT22;10116;53.112;7.356;2022-11-04T11:29:29;26.50;99.90
19908;DHT22;10116;53.112;7.356;2022-11-04T11:31:57;26.50;99.90
19908;DHT22;10116;53.112;7.356;2022-11-04T11:34:30;26.50;99.90
19908;DHT22;10116;53.112;7.356;2022-11-04T11:36:59;26.40;99.90
19908;DHT22;10116;53.112;7.356;2022-11-04T11:39:31;26.40;99.90
19908;DHT22;10116;53.112;7.356;2022-11-04T11:42:10;26.40;99.90
19908;DHT22;10116;53.112;7.356;2022-11-04T11:44:42;26.40;99.90
19908;DHT22;10116;53.112;7.356;2022-11-04T11:47:19;26.40;99.90
19908;DHT22;10116;53.112;7.356;2022-11-04T11:49:45;26.40;99.90
19908;DHT22;10116;53.112;7.356;2022-11-04T11:57:59;26.30;99.90
19908;DHT22;10116;53.112;7.356;2022-11-04T12:00:29;26.30;99.90
19908;DHT22;10116;53.112;7.356;2022-11-04T12:03:01;26.20;99.90
19908;DHT22;10116;53.112;7.356;2022-11-04T12:05:34;26.20;99.90
19908;DHT22;10116;53.112;7.356;2022-11-04T12:10:59;26.20;99.90
19908;DHT22;10116;53.112;7.356;2022-11-04T12:13:47;26.10;99.90
19908;DHT22;10116;53.112;7.356;2022-11-04T12:30:13;26.30;99.90
19908;DHT22;10116;53.112;7.356;2022-11-04T12:43:23;26.50;99.90
19908;DHT22;10116;53.112;7.356;2022-11-04T12:54:01;26.50;99.90
19908;DHT22;10116;53.112;7.356;2022-11-04T12:56:37;26.40;99.90
19908;DHT22;10116;53.112;7.356;2022-11-04T13:01:42;26.40;99.90
19908;DHT22;10116;53.112;7.356;2022-11-04T13:04:55;26.40;99.90
19908;DHT22;10116;53.112;7.356;2022-11-04T13:07:11;26.40;99.90
19908;DHT22;10116;53.112;7.356;2022-11-04T13:09:50;26.30;99.90
19908;DHT22;10116;53.112;7.356;2022-11-04T13:12:24;26.30;99.90
19908;DHT22;10116;53.112;7.356;2022-11-04T13:14:53;26.30;99.90
19908;DHT22;10116;53.112;7.356;2022-11-04T13:17:30;26.30;99.90
19908;DHT22;10116;53.112;7.356;2022-11-04T13:20:16;26.30;99.90
19908;DHT22;10116;53.112;7.356;2022-11-04T13:22:48;26.30;99.90
19908;DHT22;10116;53.112;7.356;2022-11-04T13:25:21;26.20;99.90
19908;DHT22;10116;53.112;7.356;2022-11-04T13:27:50;26.20;99.90
19908;DHT22;10116;53.112;7.356;2022-11-04T13:33:26;26.20;99.90
19908;DHT22;10116;53.112;7.356;2022-11-04T13:36:24;26.20;99.90
19908;DHT22;10116;53.112;7.356;2022-11-04T13:38:56;26.20;99.90
19908;DHT22;10116;53.112;7.356;2022-11-04T13:44:02;26.20;99.90
19908;DHT22;10116;53.112;7.356;2022-11-04T13:46:33;26.10;99.90
19908;DHT22;10116;53.112;7.356;2022-11-04T13:51:42;26.10;99.90
19908;DHT22;10116;53.112;7.356;2022-11-04T13:54:32;26.10;99.90
19908;DHT22;10116;53.112;7.356;2022-11-04T13:59:40;26.00;99.90
19908;DHT22;10116;53.112;7.356;2022-11-04T14:04:38;26.00;99.90
19908;DHT22;10116;53.112;7.356;2022-11-04T14:07:06;25.90;99.90
19908;DHT22;10116;53.112;7.356;2022-11-04T14:09:38;25.90;99.90
19908;DHT22;10116;53.112;7.356;2022-11-04T14:14:43;25.90;99.90
19908;DHT22;10116;53.112;7.356;2022-11-04T14:20:09;26.00;99.90
19908;DHT22;10116;53.112;7.356;2022-11-04T14:25:34;26.20;99.90
19908;DHT22;10116;53.112;7.356;2022-11-04T14:28:16;26.30;99.90
19908;DHT22;10116;53.112;7.356;2022-11-04T14:30:52;26.30;99.90
19908;DHT22;10116;53.112;7.356;2022-11-04T14:38:56;26.30;99.90
19908;DHT22;10116;53.112;7.356;2022-11-04T14:44:20;26.30;99.90
19908;DHT22;10116;53.112;7.356;2022-11-04T14:46:51;26.30;99.90
19908;DHT22;10116;53.112;7.356;2022-11-04T14:52:00;26.30;99.90
19908;DHT22;10116;53.112;7.356;2022-11-04T14:54:29;26.30;99.90
19908;DHT22;10116;53.112;7.356;2022-11-04T14:57:29;26.30;99.90
19908;DHT22;10116;53.112;7.356;2022-11-04T14:59:55;26.30;99.90
19908;DHT22;10116;53.112;7.356;2022-11-04T15:02:27;26.20;99.90
19908;DHT22;10116;53.112;7.356;2022-11-04T15:05:00;26.30;99.90
19908;DHT22;10116;53.112;7.356;2022-11-04T15:07:37;26.20;99.90
19908;DHT22;10116;53.112;7.356;2022-11-04T15:10:22;26.20;99.90
19908;DHT22;10116;53.112;7.356;2022-11-04T15:12:51;26.20;99.90
19908;DHT22;10116;53.112;7.356;2022-11-04T15:17:48;26.20;99.90
19908;DHT22;10116;53.112;7.356;2022-11-04T15:20:23;26.20;99.90
19908;DHT22;10116;53.112;7.356;2022-11-04T15:22:50;26.20;99.90
19908;DHT22;10116;53.112;7.356;2022-11-04T15:25:16;26.10;99.90
19908;DHT22;10116;53.112;7.356;2022-11-04T15:27:42;26.10;99.90
19908;DHT22;10116;53.112;7.356;2022-11-04T15:32:59;26.00;99.90
19908;DHT22;10116;53.112;7.356;2022-11-04T15:35:27;26.10;99.90
19908;DHT22;10116;53.112;7.356;2022-11-04T15:37:54;26.00;99.90
19908;DHT22;10116;53.112;7.356;2022-11-04T15:40:20;26.00;99.90
19908;DHT22;10116;53.112;7.356;2022-11-04T15:42:47;26.00;99.90
19908;DHT22;10116;53.112;7.356;2022-11-04T15:45:37;26.00;99.90
19908;DHT22;10116;53.112;7.356;2022-11-04T15:48:32;26.10;99.90
19908;DHT22;10116;53.112;7.356;2022-11-04T15:54:04;26.20;99.90
19908;DHT22;10116;53.112;7.356;2022-11-04T15:56:44;26.30;99.90
19908;DHT22;10116;53.112;7.356;2022-11-04T15:59:16;26.30;99.90
19908;DHT22;10116;53.112;7.356;2022-11-04T16:01:48;26.30;99.90
19908;DHT22;10116;53.112;7.356;2022-11-04T16:04:15;26.30;99.90
19908;DHT22;10116;53.112;7.356;2022-11-04T16:06:43;26.30;99.90
19908;DHT22;10116;53.112;7.356;2022-11-04T16:11:36;26.30;99.90
19908;DHT22;10116;53.112;7.356;2022-11-04T16:16:48;26.40;99.90
19908;DHT22;10116;53.112;7.356;2022-11-04T16:19:17;26.30;99.90
19908;DHT22;10116;53.112;7.356;2022-11-04T16:21:45;26.30;99.90
19908;DHT22;10116;53.112;7.356;2022-11-04T16:26:47;26.30;99.90
19908;DHT22;10116;53.112;7.356;2022-11-04T16:31:43;26.20;99.90
19908;DHT22;10116;53.112;7.356;2022-11-04T16:34:11;26.20;99.90
19908;DHT22;10116;53.112;7.356;2022-11-04T16:36:37;26.20;99.90
19908;DHT22;10116;53.112;7.356;2022-11-04T16:39:04;26.20;99.90
19908;DHT22;10116;53.112;7.356;2022-11-04T16:41:39;26.20;99.90
19908;DHT22;10116;53.112;7.356;2022-11-04T16:44:18;26.20;99.90
19908;DHT22;10116;53.112;7.356;2022-11-04T16:46:44;26.20;99.90
19908;DHT22;10116;53.112;7.356;2022-11-04T16:49:14;26.10;99.90
19908;DHT22;10116;53.112;7.356;2022-11-04T16:51:40;26.10;99.90
19908;DHT22;10116;53.112;7.356;2022-11-04T16:54:06;26.10;99.90
19908;DHT22;10116;53.112;7.356;2022-11-04T16:56:32;26.10;99.90
19908;DHT22;10116;53.112;7.356;2022-11-04T16:58:58;26.10;99.90
19908;DHT22;10116;53.112;7.356;2022-11-04T17:01:23;26.10;99.90
19908;DHT22;10116;53.112;7.356;2022-11-04T17:03:49;26.00;99.90
19908;DHT22;10116;53.112;7.356;2022-11-04T17:06:15;26.00;99.90
19908;DHT22;10116;53.112;7.356;2022-11-04T17:08:42;26.00;99.90
19908;DHT22;10116;53.112;7.356;2022-11-04T17:11:08;26.00;99.90
19908;DHT22;10116;53.112;7.356;2022-11-04T17:13:35;26.00;99.90
19908;DHT22;10116;53.112;7.356;2022-11-04T17:16:01;26.10;99.90
19908;DHT22;10116;53.112;7.356;2022-11-04T17:18:29;26.20;99.90
19908;DHT22;10116;53.112;7.356;2022-11-04T17:20:56;26.20;99.90
19908;DHT22;10116;53.112;7.356;2022-11-04T17:23:22;26.30;99.90
19908;DHT22;10116;53.112;7.356;2022-11-04T17:25:48;26.40;99.90
19908;DHT22;10116;53.112;7.356;2022-11-04T17:28:14;26.30;99.90
19908;DHT22;10116;53.112;7.356;2022-11-04T17:30:40;26.30;99.90
19908;DHT22;10116;53.112;7.356;2022-11-04T17:33:16;26.30;99.90
19908;DHT22;10116;53.112;7.356;2022-11-04T17:35:44;26.30;99.90
19908;DHT22;10116;53.112;7.356;2022-11-04T17:38:13;26.30;99.90
19908;DHT22;10116;53.112;7.356;2022-11-04T17:40:39;26.30;99.90
19908;DHT22;10116;53.112;7.356;2022-11-04T17:43:40;26.30;99.90
19908;DHT22;10116;53.112;7.356;2022-11-04T17:46:24;26.30;99.90
19908;DHT22;10116;53.112;7.356;2022-11-04T17:49:12;26.30;99.90
19908;DHT22;10116;53.112;7.356;2022-11-04T17:51:40;26.30;99.90
19908;DHT22;10116;53.112;7.356;2022-11-04T17:54:05;26.20;99.90
19908;DHT22;10116;53.112;7.356;2022-11-04T17:56:31;26.20;99.90
19908;DHT22;10116;53.112;7.356;2022-11-04T17:58:59;26.20;99.90
19908;DHT22;10116;53.112;7.356;2022-11-04T18:01:29;26.20;99.90
19908;DHT22;10116;53.112;7.356;2022-11-04T18:03:55;26.20;99.90
19908;DHT22;10116;53.112;7.356;2022-11-04T18:06:23;26.20;99.90
19908;DHT22;10116;53.112;7.356;2022-11-04T18:08:54;26.20;99.90
19908;DHT22;10116;53.112;7.356;2022-11-04T18:11:21;26.20;99.90
19908;DHT22;10116;53.112;7.356;2022-11-04T18:14:06;26.10;99.90
19908;DHT22;10116;53.112;7.356;2022-11-04T18:16:32;26.20;99.90
19908;DHT22;10116;53.112;7.356;2022-11-04T18:18:58;26.10;99.90
19908;DHT22;10116;53.112;7.356;2022-11-04T18:21:25;26.10;99.90
19908;DHT22;10116;53.112;7.356;2022-11-04T18:23:51;26.10;99.90
19908;DHT22;10116;53.112;7.356;2022-11-04T18:26:16;26.10;99.90
19908;DHT22;10116;53.112;7.356;2022-11-04T18:28:43;26.00;99.90
19908;DHT22;10116;53.112;7.356;2022-11-04T18:31:10;26.00;99.90
19908;DHT22;10116;53.112;7.356;2022-11-04T18:33:36;26.00;99.90
19908;DHT22;10116;53.112;7.356;2022-11-04T18:36:07;26.00;99.90
19908;DHT22;10116;53.112;7.356;2022-11-04T18:38:33;26.00;99.90